Aviation Digital Data Service (ADDS)

Output produced by METARs form (1203 UTC 16 July 2019)
found at http://www.aviationweather.gov/metar/data/
 
TAF FCPP 161100Z 1612/1712 20004KT 8000 SCT018 
     PROB30 1704/1708 3000 BR